Tiempo atmosférico en la estación meteorológica de Sevilla, Tablada, Sevilla (9 m.)



Fecha
DESCASC
Temp. máxima en grados centígrados (hora)
DESCASC
Temp. mínima en grados centígrados (hora)
DESCASC
Temp. media en grados centígrados
DESCASC
Racha de viento máxima en m/sg (hora)
DESCASC
Velocidad máxima media en intervalos de 10 minutos(hora)
DESCASC
Precipitaciones diarias en mm
DESCASC
Precipitaciones de 00:00 a 06:00 en mm
DESCASC
Precipitaciones de 06:00 a 12:00 en mm
DESCASC
Precipitaciones de 12:00 a 18:00 en mm
DESCASC
Precipitaciones de 18:00 a 24:00 en mm
DESCASC
17-01-2021 19.2 (16:30) 2.6 (00:00) 10.9 6.11 (10:10) 2.5 (10:20) 0 0 0 0 0
24-12-2020 18.6 (15:20) 8.3 (00:00) 13.5 1.94 (15:00) 1.11 (23:30) 0 0 0 0 0
21-01-2021 17.9 (14:00) 8.4 (00:00) 13.1 10.56 (16:10) 5.56 (14:10) 0 0 0 0 0
25-12-2020 17.8 (15:20) 8.3 (00:00) 13 11.39 (14:50) 5.83 (14:40) 0 0 0 0 0
16-01-2021 17.8 (16:50) 1.1 (00:00) 9.4 5.83 (13:10) 2.78 (13:20) 0 0 0 0 0
28-12-2020 17.2 (15:10) 4.1 (00:00) 10.7 9.72 (10:50) 4.44 (08:10) 0 0 0 0 0
15-01-2021 17.1 (16:20) 0.3 (00:00) 8.7 3.06 (07:20) 1.67 (07:20) 0 0 0 0 0
29-12-2020 16.4 (15:10) 3.1 (00:00) 9.7 8.33 (13:10) 3.89 (13:10) 0 0 0 0 0
18-01-2021 16.4 (15:20) 1 (00:00) 8.7 3.61 (11:10) 2.22 (11:00) 0 0 0 0 0
13-01-2021 16.3 (15:50) -0.2 (00:00) 8 3.33 (13:20) 1.39 (10:10) 0 0 0 0 0
23-12-2020 16.2 (15:20) 8.1 (02:40) 12.2 3.33 (09:50) 1.39 (10:20) 0 0 0 0 0
01-01-2021 15.8 (15:10) 5 (00:00) 10.4 6.67 (06:10) 2.78 (01:00) 0 0 0 0 0
02-01-2021 15.3 (15:20) 0.2 (00:00) 7.8 6.11 (16:20) 2.22 (15:50) 0 0 0 0 0
20-01-2021 15.2 (17:20) 10.4 (00:00) 12.8 13.61 (11:20) 7.5 (11:10) 8.6 0 8.6 0 0
30-12-2020 15.1 (15:20) 1 (00:00) 8.1 4.72 (13:20) 2.22 (14:10) 0 0 0 0 0
27-12-2020 15 (14:40) 1.7 (00:00) 8.4 4.72 (02:00) 2.5 (10:30) 0 0 0 0 0
11-01-2021 14.8 (16:30) 1.5 (00:00) 8.2 5.83 (13:10) 2.78 (13:10) 0 0 0 0 0
19-01-2021 14.7 (16:10) 2.3 (00:00) 8.5 3.06 (23:30) 1.67 (16:20) 0 0 0 0 0
12-01-2021 14.4 (15:50) 0.3 (00:00) 7.3 5.56 (11:30) 2.78 (11:30) 0 0 0 0 0
14-01-2021 14.4 (16:20) -0.2 (08:40) 7.1 2.78 (10:40) 1.39 (10:40) 0 0 0 0 0
31-12-2020 14.3 (14:20) 0.5 (00:00) 7.4 6.11 (19:20) 3.33 (19:10) 0 0 0 0 0
26-12-2020 13.8 (16:10) 5.1 (00:00) 9.5 11.67 (13:40) 5.83 (13:40) 0 0 0 0 0
04-01-2021 13 (14:30) -0.6 (-00:0) 6.2 4.17 (17:30) 2.22 (15:00) 0 0 0 0 0
05-01-2021 12.9 (13:30) 4.1 (00:00) 8.5 4.44 (17:20) 2.22 (05:40) 0 0 0 0 0
06-01-2021 12.7 (14:50) 3 (00:00) 7.8 7.78 (19:10) 3.61 (17:00) 8.2 0 0 0 8.2
03-01-2021 12.7 (14:40) -1.5 (-00:0) 5.6 5.56 (16:00) 3.33 (15:50) 0 0 0 0 0
09-01-2021 11.8 (16:10) 3.5 (00:00) 7.7 7.5 (15:10) 3.89 (15:10) 1.2 1.2 0 0 0
10-01-2021 9.7 (16:00) 2.2 (09:00) 5.9 4.17 (13:40) 2.22 (13:40) 0.6 0.2 0 0.4 0
07-01-2021 8.7 (15:30) 6.9 (00:00) 7.8 8.06 (09:10) 3.89 (09:10) 12.4 3.8 2.8 0.6 5.2
08-01-2021 8.3 (17:20) 6.5 (00:00) 7.4 8.89 (15:00) 4.44 (14:40) 57.6 3.2 11.2 40.8 2.4

Gráficas

Temp. máximas Temp. mínimas Temp. medias Precipitaciones Rachas de viento máximas Velocidades máximas media en intervalos de 10 minutos

Datos horarios

Fecha y hora oficial Temperatura (ºC) Velocidad del viento (km/h) Dirección del viento Racha (km/h) Dirección de racha Precipitación (mm) Presión (hPa) Tendencia (hPa) Humedad (%)
2021-01-21 23:00:00 14.6 16 Sur 28 Sur 0 -- -- 93
2021-01-21 22:00:00 14.4 12 Sur 23 Sur 0 -- -- 92
2021-01-21 21:00:00 14.4 9 Sudoeste 24 Sudoeste 0 -- -- 91
2021-01-21 20:00:00 14.7 11 Sudoeste 26 Sudoeste 0 -- -- 90
2021-01-21 19:00:00 15.2 12 Sudoeste 31 Sudoeste 0 -- -- 88
2021-01-21 18:00:00 15.7 12 Sudoeste 26 Sudoeste 0 -- -- 85
2021-01-21 17:00:00 15.8 11 Sudoeste 38 Oeste 0 -- -- 86
2021-01-21 16:00:00 17 13 Sudoeste 32 Sudoeste 0 -- -- 79
2021-01-21 15:00:00 17.4 16 Sudoeste 34 Oeste 0 -- -- 72
2021-01-21 14:00:00 17.9 15 Sudoeste 33 Oeste 0 -- -- 69
2021-01-21 13:00:00 16.1 8 Sudoeste 18 Sudoeste 0 -- -- 87
2021-01-21 12:00:00 13.6 8 Sudoeste 14 Sudoeste 0 -- -- 100
2021-01-21 11:00:00 11 3 Sur 6 Sur 0 -- -- 100
2021-01-21 10:00:00 9.7 3 Sur 9 Sur 0 -- -- 99
2021-01-21 09:00:00 9.2 3 Sur 5 Sudoeste 0 -- -- 99
2021-01-21 08:00:00 8.7 3 Sur 10 Sur 0 -- -- 98
2021-01-21 07:00:00 8.4 2 Sur 6 Sudeste 0 -- -- 97
2021-01-21 06:00:00 9.1 2 Sudeste 6 Sudeste 0 -- -- 96
2021-01-21 05:00:00 9.6 3 Sudeste 8 Sur 0 -- -- 95
2021-01-21 04:00:00 10.6 3 Sur 9 Sudoeste 0 -- -- 94
2021-01-21 03:00:00 11.8 4 Sudoeste 13 Sudoeste 0 -- -- 93
2021-01-21 02:00:00 12.4 7 Sudoeste 18 Oeste 0 -- -- 94
2021-01-21 01:00:00 11.7 7 Sudoeste 16 Sudoeste 0 -- -- 94
2021-01-21 00:00:00 11.5 6 Sudoeste 14 Oeste 0 -- -- 93
2021-01-20 23:00:00 11.2 5 Oeste 13 Oeste 0 -- -- 91
2021-01-20 22:00:00 11.7 6 Oeste 11 Oeste 0 -- -- 91
2021-01-20 21:00:00 12.1 5 Sudoeste 15 Oeste 0 -- -- 89
2021-01-20 20:00:00 13.1 6 Sudoeste 17 Oeste 0 -- -- 87
2021-01-20 19:00:00 14.2 10 Sudoeste 25 Sudoeste 0 -- -- 88
2021-01-20 18:00:00 14.9 11 Sudoeste 29 Sudoeste 0 -- -- 91
2021-01-20 17:00:00 15 16 Sudoeste 29 Sudoeste 0 -- -- 91
2021-01-20 16:00:00 14.6 21 Sur 33 Sudoeste 0 -- -- 92
2021-01-20 15:00:00 14.3 12 Sur 39 Sur 0 -- -- 93
2021-01-20 14:00:00 14.1 16 Sur 41 Sudoeste 0 -- -- 92
2021-01-20 13:00:00 14.1 21 Sudoeste 46 Sudoeste 0 -- -- 91
2021-01-20 12:00:00 13 22 Sur 49 Sur 3.8 -- -- 97
2021-01-20 11:00:00 12.7 21 Sur 39 Sudoeste 0.4 -- -- 96
2021-01-20 10:00:00 12.2 19 Sur 35 Sudoeste 2.4 -- -- 95
2021-01-20 09:00:00 11.8 13 Sur 22 Sur 1 -- -- 94
2021-01-20 08:00:00 11.7 10 Sur 22 Sudoeste 1 -- -- 93
2021-01-20 07:00:00 12.1 9 Sur 22 Sur 0 -- -- 89
2021-01-20 06:00:00 12.1 9 Sur 24 Sur 0 -- -- 87
2021-01-20 05:00:00 11.8 6 Sur 17 Sur 0 -- -- 84
2021-01-20 04:00:00 10.9 5 Sur 10 Sur 0 -- -- 88
2021-01-20 03:00:00 10.4 0 Calma 4 Sur 0 -- -- 90
2021-01-20 02:00:00 10.5 0 Calma 6 Sudoeste 0 -- -- 89
2021-01-20 01:00:00 10.7 0 Calma 8 Sur 0 -- -- 88
2021-01-20 00:00:00 11.1 2 Sur 11 Sur 0 -- -- 87
2021-01-19 23:00:00 11.3 4 Sur 9 Sudoeste 0 -- -- 87
2021-01-19 22:00:00 11.3 2 Sur 5 Sudoeste 0 -- -- 86
2021-01-19 21:00:00 11.6 0 Calma -- -- 0 -- -- 84
2021-01-19 20:00:00 12.1 0 Calma 2 Este 0 -- -- 82
2021-01-19 19:00:00 12.9 0 Calma 2 Noroeste 0 -- -- 79
2021-01-19 18:00:00 13.8 0 Calma 4 Nordeste 0 -- -- 75
2021-01-19 17:00:00 14.4 0 Calma 10 Sudeste 0 -- -- 69
2021-01-19 16:00:00 14.5 4 Este 6 Este 0 -- -- 67
2021-01-19 15:00:00 14.2 2 Norte 8 Noroeste 0 -- -- 68
2021-01-19 14:00:00 13.5 3 Norte 8 Noroeste 0 -- -- 68
2021-01-19 13:00:00 12.7 2 Norte 6 Noroeste 0 -- -- 67
2021-01-19 12:00:00 11.2 3 Norte 9 Noroeste 0 -- -- 70
2021-01-19 11:00:00 9.1 4 Norte 7 Nordeste 0 -- -- 80
2021-01-19 10:00:00 4.4 2 Nordeste 4 Nordeste 0 -- -- 97
2021-01-19 09:00:00 2.4 2 Norte 5 Nordeste 0 -- -- 94
2021-01-19 08:00:00 2.3 0 Calma 5 Norte 0 -- -- 93
2021-01-19 07:00:00 3 4 Norte 9 Norte 0 -- -- 93
2021-01-19 06:00:00 3 2 Norte 8 Norte 0 -- -- 93
2021-01-19 05:00:00 3.2 3 Norte 8 Norte 0 -- -- 92
2021-01-19 04:00:00 3.8 4 Norte 9 Norte 0 -- -- 92
2021-01-19 03:00:00 3.9 3 Norte 7 Norte 0 -- -- 92
2021-01-19 02:00:00 4 3 Norte 8 Norte 0 -- -- 91
2021-01-19 01:00:00 4.1 4 Norte 7 Noroeste 0 -- -- 92
2021-01-19 00:00:00 4.3 3 Norte 5 Noroeste 0 -- -- 91
2021-01-18 23:00:00 5.1 2 Noroeste 4 Noroeste 0 -- -- 90
2021-01-18 22:00:00 5.8 0 Calma 2 Noroeste 0 -- -- 88
2021-01-18 21:00:00 6.6 0 Calma 2 Sur 0 -- -- 83
2021-01-18 20:00:00 8.3 0 Calma 2 Sur 0 -- -- 78
2021-01-18 19:00:00 11 0 Calma 10 Sur 0 -- -- 70
2021-01-18 18:00:00 13.6 4 Sur 11 Sudeste 0 -- -- 57
2021-01-18 17:00:00 16.2 5 Sur 10 Sur 0 -- -- 43
2021-01-18 16:00:00 16.1 4 Sur 11 Sudeste 0 -- -- 44
2021-01-18 15:00:00 16 4 Sudeste 8 Sur 0 -- -- 46
2021-01-18 14:00:00 15.5 3 Sudeste 10 Sudeste 0 -- -- 47
2021-01-18 13:00:00 14.1 4 Nordeste 12 Norte 0 -- -- 49
2021-01-18 12:00:00 11.6 5 Norte 13 Norte 0 -- -- 55
2021-01-18 11:00:00 8.7 8 Norte 13 Norte 0 -- -- 68
2021-01-18 10:00:00 5.4 6 Norte 12 Norte 0 -- -- 86
2021-01-18 09:00:00 1.3 2 Norte 5 Noroeste 0 -- -- 94
2021-01-18 08:00:00 1.2 3 Norte 4 Norte 0 -- -- 92
2021-01-18 07:00:00 1.9 2 Norte 6 Noroeste 0 -- -- 90
2021-01-18 06:00:00 2.6 3 Norte 11 Norte 0 -- -- 89
2021-01-18 05:00:00 3.2 5 Norte 10 Norte 0 -- -- 90
2021-01-18 04:00:00 2.9 5 Norte 8 Noroeste 0 -- -- 92
2021-01-18 03:00:00 3 0 Calma 5 Norte 0 -- -- 89
2021-01-18 02:00:00 3.4 3 Norte 5 Norte 0 -- -- 86
2021-01-18 01:00:00 4.6 0 Calma 6 Norte 0 -- -- 82
2021-01-18 00:00:00 4.4 6 Noroeste 9 Noroeste 0 -- -- 85
2021-01-17 23:00:00 5.2 2 Noroeste 4 Norte 0 -- -- 84
2021-01-17 22:00:00 6.1 0 Calma 3 Sudeste 0 -- -- 81
2021-01-17 21:00:00 7.5 0 Calma 2 Norte 0 -- -- 76
2021-01-17 20:00:00 9.5 0 Calma 5 Norte 0 -- -- 70
2021-01-17 19:00:00 12.4 0 Calma 3 Noroeste 0 -- -- 63
2021-01-17 18:00:00 17.1 3 Noroeste 5 Nordeste 0 -- -- 48
2021-01-17 17:00:00 18.8 3 Este 13 Este 0 -- -- 39
2021-01-17 16:00:00 19 3 Norte 12 Este 0 -- -- 43
2021-01-17 15:00:00 18.5 3 Nordeste 9 Nordeste 0 -- -- 42
2021-01-17 14:00:00 16.6 3 Nordeste 9 Nordeste 0 -- -- 42
2021-01-17 13:00:00 14.9 5 Este 17 Nordeste 0 -- -- 47
2021-01-17 12:00:00 12.3 8 Nordeste 17 Norte 0 -- -- 51
2021-01-17 11:00:00 9 9 Nordeste 22 Nordeste 0 -- -- 61
2021-01-17 10:00:00 6.3 5 Nordeste 13 Nordeste 0 -- -- 71
2021-01-17 09:00:00 3.4 5 Norte 13 Nordeste 0 -- -- 83
2021-01-17 08:00:00 2.6 5 Norte 12 Norte 0 -- -- 87
2021-01-17 07:00:00 2.9 7 Norte 13 Norte 0 -- -- 88
2021-01-17 06:00:00 3.2 5 Norte 10 Norte 0 -- -- 89
2021-01-17 05:00:00 3.5 4 Nordeste 9 Este 0 -- -- 90
2021-01-17 04:00:00 3.7 4 Norte 8 Norte 0 -- -- 90
2021-01-17 03:00:00 4.1 4 Norte 8 Norte 0 -- -- 92
2021-01-17 02:00:00 3.9 5 Norte 8 Norte 0 -- -- 93
2021-01-17 01:00:00 4.2 3 Norte 8 Noroeste 0 -- -- 91
2021-01-17 00:00:00 4.8 3 Noroeste 5 Noroeste 0 -- -- 90
2021-01-16 23:00:00 5.7 2 Norte 4 Noroeste 0 -- -- 87
2021-01-16 22:00:00 6.8 3 Norte 5 Norte 0 -- -- 83
2021-01-16 21:00:00 8 4 Norte 6 Norte 0 -- -- 78
2021-01-16 20:00:00 9.7 3 Norte 6 Norte 0 -- -- 72
2021-01-16 19:00:00 12.4 3 Norte 8 Norte 0 -- -- 63
2021-01-16 18:00:00 15.9 4 Nordeste 12 Norte 0 -- -- 50
2021-01-16 17:00:00 17.7 5 Nordeste 17 Nordeste 0 -- -- 44
2021-01-16 16:00:00 17.3 10 Nordeste 19 Nordeste 0 -- -- 43
2021-01-16 15:00:00 16.3 8 Nordeste 19 Nordeste 0 -- -- 49
2021-01-16 14:00:00 15.4 10 Nordeste 21 Nordeste 0 -- -- 48
2021-01-16 13:00:00 14 8 Nordeste 17 Nordeste 0 -- -- 54
2021-01-16 12:00:00 11.6 5 Norte 13 Norte 0 -- -- 65
2021-01-16 11:00:00 8.6 6 Norte 10 Norte 0 -- -- 77
2021-01-16 10:00:00 5 5 Norte 12 Norte 0 -- -- 97
2021-01-16 09:00:00 2 4 Norte 9 Norte 0 -- -- 98
2021-01-16 08:00:00 1.8 5 Norte 9 Norte 0 -- -- 97
2021-01-16 07:00:00 1.2 3 Norte 6 Norte 0 -- -- 97
2021-01-16 06:00:00 1.2 3 Noroeste 5 Norte 0 -- -- 96
2021-01-16 05:00:00 1.6 2 Norte 4 Norte 0 -- -- 96
2021-01-16 04:00:00 2.2 2 Norte 4 Norte 0 -- -- 95
2021-01-16 03:00:00 2.6 0 Calma 3 Norte 0 -- -- 95
2021-01-16 02:00:00 3.4 0 Calma 5 Norte 0 -- -- 95
2021-01-16 01:00:00 3.7 4 Norte 6 Norte 0 -- -- 95
2021-01-16 00:00:00 3.8 3 Norte 6 Norte 0 -- -- 93
2021-01-15 23:00:00 4.6 0 Calma 4 Norte 0 -- -- 92
2021-01-15 22:00:00 5.2 0 Calma 2 Noroeste 0 -- -- 90
2021-01-15 21:00:00 6.6 0 Calma 4 Sudoeste 0 -- -- 88
2021-01-15 20:00:00 8.2 0 Calma 2 Sudoeste 0 -- -- 80
2021-01-15 19:00:00 11 0 Calma 6 Sur 0 -- -- 71
2021-01-15 18:00:00 14.4 4 Sudoeste 6 Sudoeste 0 -- -- 52
2021-01-15 17:00:00 17 0 Calma 5 Nordeste 0 -- -- 45
2021-01-15 16:00:00 16.8 3 Nordeste 6 Norte 0 -- -- 47
2021-01-15 15:00:00 15.2 3 Sur 8 Sudoeste 0 -- -- 48
2021-01-15 14:00:00 14.1 2 Sudeste 5 Sudeste 0 -- -- 51
2021-01-15 13:00:00 12.2 2 Noroeste 6 Sudoeste 0 -- -- 58
2021-01-15 12:00:00 10.7 0 Calma 7 Norte 0 -- -- 63
2021-01-15 11:00:00 7.9 3 Norte 7 Norte 0 -- -- 78
2021-01-15 10:00:00 4.4 3 Norte 9 Norte 0 -- -- 98
2021-01-15 09:00:00 1.1 5 Norte 9 Norte 0 -- -- 98
2021-01-15 08:00:00 0.8 3 Norte 11 Norte 0 -- -- 96
2021-01-15 07:00:00 0.8 4 Norte 9 Norte 0 -- -- 97
2021-01-15 06:00:00 1.5 3 Norte 10 Norte 0 -- -- 96
2021-01-15 05:00:00 1.8 5 Norte 10 Norte 0 -- -- 97
2021-01-15 04:00:00 1 4 Noroeste 6 Noroeste 0 -- -- 96
2021-01-15 03:00:00 1.9 0 Calma 7 Nordeste 0 -- -- 96
2021-01-15 02:00:00 2.3 4 Norte 8 Norte 0 -- -- 96
2021-01-15 01:00:00 2 0 Calma 3 Noroeste 0 -- -- 95
2021-01-15 00:00:00 2.6 0 Calma 3 Norte 0 -- -- 94
2021-01-14 23:00:00 3.5 0 Calma 2 Sudeste 0 -- -- 93
2021-01-14 22:00:00 4.3 0 Calma 2 Noroeste 0 -- -- 91
2021-01-14 21:00:00 5.4 0 Calma 2 Sudoeste 0 -- -- 88
2021-01-14 20:00:00 7 0 Calma 4 Sur 0 -- -- 84
2021-01-14 19:00:00 9.3 2 Sudoeste 8 Sudoeste 0 -- -- 76
2021-01-14 18:00:00 11.9 4 Sudoeste 8 Sudoeste 0 -- -- 65
2021-01-14 17:00:00 13.9 4 Sur 8 Sudeste 0 -- -- 54
2021-01-14 16:00:00 14.3 2 Sudeste 8 Sur 0 -- -- 57
2021-01-14 15:00:00 13.4 3 Sur 8 Sudeste 0 -- -- 57
2021-01-14 14:00:00 12.9 3 Sur 8 Sur 0 -- -- 60
2021-01-14 13:00:00 11.9 2 Noroeste 8 Norte 0 -- -- 62
2021-01-14 12:00:00 9.5 4 Norte 9 Norte 0 -- -- 69
2021-01-14 11:00:00 6.6 4 Nordeste 10 Noroeste 0 -- -- 79
2021-01-14 10:00:00 3.5 4 Norte 8 Nordeste 0 -- -- 98
2021-01-14 09:00:00 -0.1 3 Norte 6 Norte 0 -- -- 98
2021-01-14 08:00:00 0.1 3 Norte 9 Norte 0 -- -- 97
2021-01-14 07:00:00 0.1 3 Norte 7 Norte 0 -- -- 97
2021-01-14 06:00:00 0.2 2 Norte 7 Norte 0 -- -- 96
2021-01-14 05:00:00 0.3 3 Norte 5 Noroeste 0 -- -- 96
2021-01-14 04:00:00 0.8 2 Norte 4 Noroeste 0 -- -- 95
2021-01-14 03:00:00 0.9 2 Norte 4 Noroeste 0 -- -- 94
2021-01-14 02:00:00 1.4 0 Calma 3 Norte 0 -- -- 93
2021-01-14 01:00:00 2.1 0 Calma 2 Norte 0 -- -- 92
2021-01-14 00:00:00 3 0 Calma 4 Noroeste 0 -- -- 90
2021-01-13 23:00:00 4.2 2 Sudoeste 7 Sudoeste 0 -- -- 89
2021-01-13 22:00:00 5 2 Sudeste 4 Sur 0 -- -- 88
2021-01-13 21:00:00 5.5 2 Sur 4 Sur 0 -- -- 82
2021-01-13 20:00:00 7.1 0 Calma 4 Sur 0 -- -- 75
2021-01-13 19:00:00 9.9 0 Calma 6 Sur 0 -- -- 62
2021-01-13 18:00:00 13.2 4 Sur 7 Sudoeste 0 -- -- 44
2021-01-13 17:00:00 15.8 3 Sudoeste 7 Sudoeste 0 -- -- 38
2021-01-13 16:00:00 16.1 3 Sudeste 6 Oeste 0 -- -- 33
2021-01-13 15:00:00 16 3 Noroeste 8 Oeste 0 -- -- 46
2021-01-13 14:00:00 14 3 Noroeste 12 Norte 0 -- -- 48
2021-01-13 13:00:00 12.2 5 Norte 10 Norte 0 -- -- 53
2021-01-13 12:00:00 9.9 4 Nordeste 11 Norte 0 -- -- 55
2021-01-13 11:00:00 7.1 5 Norte 11 Norte 0 -- -- 66
2021-01-13 10:00:00 3.7 4 Norte 8 Norte 0 -- -- 90
2021-01-13 09:00:00 0 4 Noroeste 6 Noroeste 0 -- -- 94
2021-01-13 08:00:00 0.4 4 Norte 9 Norte 0 -- -- 94
2021-01-13 07:00:00 0.6 5 Norte 8 Norte 0 -- -- 94
2021-01-13 06:00:00 0.7 4 Norte 8 Nordeste 0 -- -- 95
2021-01-13 05:00:00 0.4 4 Noroeste 7 Noroeste 0 -- -- 95
2021-01-13 04:00:00 0.5 4 Norte 6 Noroeste 0 -- -- 94
2021-01-13 03:00:00 1.3 2 Norte 4 Norte 0 -- -- 93
2021-01-13 02:00:00 1.9 2 Norte 7 Norte 0 -- -- 92
2021-01-13 01:00:00 1.9 4 Norte 5 Norte 0 -- -- 90
2021-01-13 00:00:00 2.9 3 Noroeste 6 Norte 0 -- -- 87
2021-01-12 23:00:00 4 4 Norte 9 Norte 0 -- -- 86
2021-01-12 22:00:00 4.2 6 Norte 9 Norte 0 -- -- 87
2021-01-12 21:00:00 4.7 2 Norte 4 Noroeste 0 -- -- 84
2021-01-12 20:00:00 6.2 0 Calma 5 Noroeste 0 -- -- 80
2021-01-12 19:00:00 9 2 Norte 8 Nordeste 0 -- -- 69
2021-01-12 18:00:00 11.7 4 Nordeste 12 Norte 0 -- -- 58
2021-01-12 17:00:00 14.1 3 Norte 11 Norte 0 -- -- 52
2021-01-12 16:00:00 14.3 4 Nordeste 12 Este 0 -- -- 50
2021-01-12 15:00:00 13.8 5 Nordeste 18 Nordeste 0 -- -- 51
2021-01-12 14:00:00 12.4 9 Nordeste 17 Nordeste 0 -- -- 54
2021-01-12 13:00:00 11.3 7 Nordeste 17 Este 0 -- -- 55
2021-01-12 12:00:00 9 9 Nordeste 20 Nordeste 0 -- -- 57
2021-01-12 11:00:00 6.5 8 Nordeste 17 Nordeste 0 -- -- 64
2021-01-12 10:00:00 3.9 5 Nordeste 13 Norte 0 -- -- 75
2021-01-12 09:00:00 0.5 3 Norte 6 Norte 0 -- -- 91
2021-01-12 08:00:00 0.5 3 Norte 7 Norte 0 -- -- 90
2021-01-12 07:00:00 1 3 Norte 7 Norte 0 -- -- 90
2021-01-12 06:00:00 1 3 Norte 6 Norte 0 -- -- 90
2021-01-12 05:00:00 1.6 3 Norte 6 Norte 0 -- -- 87
2021-01-12 04:00:00 2.1 3 Norte 7 Norte 0 -- -- 86
2021-01-12 03:00:00 2.6 3 Norte 8 Norte 0 -- -- 83
2021-01-12 02:00:00 3.1 3 Norte 6 Nordeste 0 -- -- 81
2021-01-12 01:00:00 3.4 3 Norte 6 Norte 0 -- -- 80
2021-01-12 00:00:00 3.7 2 Norte 8 Norte 0 -- -- 81
2021-01-11 23:00:00 3.8 3 Norte 5 Norte 0 -- -- 84
2021-01-11 22:00:00 4.6 3 Norte 5 Norte 0 -- -- 82
2021-01-11 21:00:00 5.5 2 Norte 6 Nordeste 0 -- -- 82
2021-01-11 20:00:00 6.5 2 Norte 5 Nordeste 0 -- -- 81
2021-01-11 19:00:00 8.9 0 Calma 3 Sudoeste 0 -- -- 74
2021-01-11 18:00:00 12.4 0 Calma 5 Noroeste 0 -- -- 58
2021-01-11 17:00:00 14.4 4 Este 13 Norte 0 -- -- 50
2021-01-11 16:00:00 14.6 3 Este 14 Nordeste 0 -- -- 51
2021-01-11 15:00:00 14.4 5 Nordeste 16 Este 0 -- -- 51
2021-01-11 14:00:00 13.2 9 Nordeste 21 Este 0 -- -- 53
2021-01-11 13:00:00 12.7 5 Este 13 Nordeste 0 -- -- 57
2021-01-11 12:00:00 11 7 Nordeste 13 Nordeste 0 -- -- 60
2021-01-11 11:00:00 8.6 6 Nordeste 15 Norte 0 -- -- 69
2021-01-11 10:00:00 5.4 5 Norte 12 Nordeste 0 -- -- 88
2021-01-11 09:00:00 2.1 3 Norte 6 Norte 0 -- -- 96
2021-01-11 08:00:00 1.5 3 Norte 4 Norte 0 -- -- 94
2021-01-11 07:00:00 2.2 0 Calma 4 Nordeste 0 -- -- 92
2021-01-11 06:00:00 3.2 3 Nordeste 9 Norte 0 -- -- 91
2021-01-11 05:00:00 4 4 Norte 10 Norte 0 -- -- 89
2021-01-11 04:00:00 4.9 4 Norte 17 Norte 0 -- -- 89
2021-01-11 03:00:00 5.3 8 Norte 18 Norte 0 -- -- 90
2021-01-11 02:00:00 5.5 5 Norte 9 Norte 0 -- -- 95
2021-01-11 01:00:00 5.9 2 Norte 6 Sudoeste 0 -- -- 94
2021-01-11 00:00:00 5.9 0 Calma 3 Sudeste 0 -- -- 91
2021-01-10 23:00:00 6.3 0 Calma 8 Norte 0 -- -- 89
2021-01-10 22:00:00 6.5 3 Norte 13 Norte 0 -- -- 88
2021-01-10 21:00:00 6.2 4 Norte 13 Noroeste 0 -- -- 90
2021-01-10 20:00:00 6.1 4 Norte 9 Norte 0 -- -- 89
2021-01-10 19:00:00 7.1 3 Noroeste 5 Noroeste 0 -- -- 89
2021-01-10 18:00:00 8 0 Calma 5 Oeste 0.4 -- -- 84
2021-01-10 17:00:00 8.8 4 Sudoeste 6 Sudoeste 0 -- -- 74
2021-01-10 16:00:00 9.7 0 Calma 8 Nordeste 0 -- -- 70
2021-01-10 15:00:00 8.5 3 Este 12 Norte 0 -- -- 77
2021-01-10 14:00:00 8.6 5 Nordeste 15 Norte 0 -- -- 76
2021-01-10 13:00:00 7.7 4 Este 12 Este 0 -- -- 79
2021-01-10 12:00:00 6.4 5 Nordeste 10 Este 0 -- -- 85
2021-01-10 11:00:00 5.1 0 Calma 5 Noroeste 0 -- -- 95
2021-01-10 10:00:00 3.8 0 Calma 2 Sudoeste 0 -- -- 96
2021-01-10 09:00:00 2.2 0 Calma 3 Este 0 -- -- 95
2021-01-10 08:00:00 3 0 Calma 6 Este 0 -- -- 95
2021-01-10 07:00:00 3.4 4 Este 9 Este 0 -- -- 95
2021-01-10 06:00:00 3.4 2 Sur 5 Sudeste 0 -- -- 94
2021-01-10 05:00:00 3.3 3 Sudeste 5 Sudeste 0.2 -- -- 94
2021-01-10 04:00:00 3.2 3 Sur 8 Sur 0 -- -- 92
2021-01-10 03:00:00 3.3 4 Sur 6 Sudoeste 0 -- -- 91
2021-01-10 02:00:00 4 3 Sudoeste 6 Sudoeste 0 -- -- 88
2021-01-10 01:00:00 4.7 4 Sudoeste 11 Sur 0 -- -- 87
2021-01-10 00:00:00 5 3 Sur 8 Sudoeste 0 -- -- 86
2021-01-09 23:00:00 5.1 0 Calma 6 Noroeste 0 -- -- 86
2021-01-09 22:00:00 4.6 3 Noroeste 7 Noroeste 0 -- -- 87
2021-01-09 21:00:00 3.8 2 Sudoeste 7 Sudoeste 0 -- -- 89
2021-01-09 20:00:00 4.8 0 Calma 3 Noroeste 0 -- -- 83
2021-01-09 19:00:00 6.6 0 Calma 5 Norte 0 -- -- 77
2021-01-09 18:00:00 9.4 2 Noroeste 11 Noroeste 0 -- -- 64
2021-01-09 17:00:00 11.3 6 Noroeste 19 Oeste 0 -- -- 55
2021-01-09 16:00:00 11.7 9 Oeste 27 Oeste 0 -- -- 52
2021-01-09 15:00:00 11.1 11 Oeste 24 Sudoeste 0 -- -- 56
2021-01-09 14:00:00 10.2 12 Sudoeste 24 Sudoeste 0 -- -- 58
2021-01-09 13:00:00 9.6 10 Sur 22 Sudoeste 0 -- -- 72
2021-01-09 12:00:00 8.3 9 Sudoeste 21 Sudoeste 0 -- -- 75
2021-01-09 11:00:00 6.3 6 Sudoeste 12 Sudoeste 0 -- -- 83
2021-01-09 10:00:00 3.9 5 Oeste 17 Oeste 0 -- -- 90
2021-01-09 09:00:00 3.5 7 Oeste 27 Oeste 0 -- -- 92
2021-01-09 08:00:00 4.5 11 Oeste 23 Sudoeste 0 -- -- 94
2021-01-09 07:00:00 5.2 8 Oeste 21 Sudoeste 0 -- -- 98
2021-01-09 06:00:00 5.3 5 Oeste 15 Oeste 0.2 -- -- 99
2021-01-09 05:00:00 5.9 3 Oeste 11 Sudoeste 0 -- -- 99
2021-01-09 04:00:00 6.2 2 Norte 10 Norte 0.2 -- -- 100
2021-01-09 03:00:00 6.8 2 Noroeste 10 Sudoeste 0.2 -- -- 100
2021-01-09 02:00:00 7.1 5 Sudoeste 9 Sudoeste 0.4 -- -- 100
2021-01-09 01:00:00 7.2 3 Sur 9 Sudoeste 0.2 -- -- 100
2021-01-09 00:00:00 7.1 2 Oeste 9 Oeste 0 -- -- 100
2021-01-08 23:00:00 7 5 Oeste 17 Noroeste 0.2 -- -- 100
2021-01-08 22:00:00 7.1 8 Norte 24 Norte 0 -- -- 100
2021-01-08 21:00:00 7.4 8 Norte 25 Norte 0 -- -- 100
2021-01-08 20:00:00 7.5 12 Norte 24 Norte 0.6 -- -- 100
2021-01-08 19:00:00 8.1 10 Norte 21 Norte 1.6 -- -- 99
2021-01-08 18:00:00 8.1 9 Norte 23 Norte 7.4 -- -- 99
2021-01-08 17:00:00 8.1 9 Nordeste 21 Nordeste 14.4 -- -- 99
2021-01-08 16:00:00 7.9 10 Norte 25 Nordeste 4.4 -- -- 99
2021-01-08 15:00:00 7.8 14 Nordeste 32 Norte 7.4 -- -- 99
2021-01-08 14:00:00 7.5 14 Nordeste 31 Nordeste 4 -- -- 99
2021-01-08 13:00:00 7.5 13 Nordeste 25 Norte 3.2 -- -- 99
2021-01-08 12:00:00 7.4 11 Nordeste 24 Norte 4.2 -- -- 99
2021-01-08 11:00:00 7.2 9 Nordeste 27 Nordeste 4 -- -- 98
2021-01-08 10:00:00 7.2 11 Nordeste 26 Nordeste 1.6 -- -- 98
2021-01-08 09:00:00 7 10 Nordeste 27 Nordeste 0.8 -- -- 98
2021-01-08 08:00:00 7 13 Nordeste 28 Nordeste 0.4 -- -- 97
2021-01-08 07:00:00 6.9 11 Nordeste 28 Nordeste 0.2 -- -- 97
2021-01-08 06:00:00 6.8 13 Nordeste 28 Nordeste 0.8 -- -- 97
2021-01-08 05:00:00 6.7 12 Nordeste 30 Este 0.4 -- -- 97
2021-01-08 04:00:00 6.7 14 Nordeste 26 Nordeste 0.6 -- -- 97
2021-01-08 03:00:00 6.5 9 Nordeste 23 Este 0 -- -- 97
2021-01-08 02:00:00 6.5 10 Nordeste 24 Nordeste 0.6 -- -- 97
2021-01-08 01:00:00 6.7 9 Nordeste 22 Norte 0.8 -- -- 97
2021-01-08 00:00:00 6.9 10 Nordeste 23 Nordeste 0.6 -- -- 97
2021-01-07 23:00:00 7 11 Nordeste 23 Nordeste 1.4 -- -- 96
2021-01-07 22:00:00 7 12 Nordeste 27 Nordeste 1 -- -- 96
2021-01-07 21:00:00 7.3 8 Nordeste 21 Nordeste 1.2 -- -- 95
2021-01-07 20:00:00 7.6 10 Nordeste 23 Este 0.6 -- -- 94
2021-01-07 19:00:00 7.9 10 Este 24 Este 0.4 -- -- 93
2021-01-07 18:00:00 8.3 8 Nordeste 27 Este 0 -- -- 91
2021-01-07 17:00:00 8.5 11 Nordeste 24 Nordeste 0.2 -- -- 90
2021-01-07 16:00:00 8.5 10 Nordeste 20 Nordeste 0 -- -- 91
2021-01-07 15:00:00 8.6 12 Nordeste 23 Nordeste 0 -- -- 92
2021-01-07 14:00:00 8.2 10 Nordeste 23 Este 0 -- -- 95
2021-01-07 13:00:00 8 10 Nordeste 21 Norte 0.4 -- -- 96
2021-01-07 12:00:00 7.8 8 Nordeste 22 Nordeste 0.4 -- -- 97
2021-01-07 11:00:00 7.6 9 Nordeste 19 Nordeste 0.4 -- -- 97
2021-01-07 10:00:00 7.4 10 Nordeste 29 Nordeste 0.2 -- -- 96
2021-01-07 09:00:00 7.3 13 Este 27 Este 0.2 -- -- 97
2021-01-07 08:00:00 7.2 9 Nordeste 19 Nordeste 1 -- -- 97
2021-01-07 07:00:00 7.1 6 Nordeste 24 Nordeste 0.6 -- -- 97
2021-01-07 06:00:00 7.1 10 Nordeste 26 Nordeste 0.6 -- -- 97
2021-01-07 05:00:00 7.1 10 Nordeste 25 Nordeste 0.6 -- -- 97
2021-01-07 04:00:00 7.1 7 Nordeste 23 Nordeste 0.2 -- -- 97
2021-01-07 03:00:00 6.9 10 Nordeste 27 Nordeste 0.2 -- -- 96
2021-01-07 02:00:00 6.9 10 Nordeste 21 Nordeste 0.6 -- -- 96
2021-01-07 01:00:00 7.1 10 Nordeste 21 Este 1.6 -- -- 96
2021-01-07 00:00:00 7.5 5 Nordeste 13 Este 1.2 -- -- 96
2021-01-06 23:00:00 7.9 6 Nordeste 14 Este 1.6 -- -- 95
2021-01-06 22:00:00 8 7 Nordeste 18 Este 2.2 -- -- 93
2021-01-06 21:00:00 8.4 9 Nordeste 20 Este 2.2 -- -- 90
2021-01-06 20:00:00 9.2 7 Nordeste 28 Este 1 -- -- 82
2021-01-06 19:00:00 10.2 10 Nordeste 27 Este 0 -- -- 71
2021-01-06 18:00:00 10.7 11 Nordeste 22 Este 0 -- -- 64
2021-01-06 17:00:00 11.2 13 Nordeste 23 Nordeste 0 -- -- 63
2021-01-06 16:00:00 11.8 9 Nordeste 18 Nordeste 0 -- -- 62
2021-01-06 15:00:00 12.6 10 Nordeste 25 Nordeste 0 -- -- 59
2021-01-06 14:00:00 10.8 8 Nordeste 21 Este 0 -- -- 62
2021-01-06 13:00:00 9.3 6 Nordeste 15 Nordeste 0 -- -- 65
2021-01-06 12:00:00 8.8 7 Nordeste 15 Norte 0 -- -- 64
2021-01-06 11:00:00 5.5 8 Nordeste 16 Norte 0 -- -- 73
2021-01-06 10:00:00 4.1 5 Norte 11 Norte 0 -- -- 78
2021-01-06 09:00:00 3.5 4 Norte 9 Norte 0 -- -- 80
2021-01-06 08:00:00 3.6 4 Norte 6 Norte 0 -- -- 81
2021-01-06 07:00:00 3.2 3 Norte 6 Norte 0 -- -- 82
2021-01-06 06:00:00 3 3 Norte 8 Norte 0 -- -- 82
2021-01-06 05:00:00 3.1 5 Norte 9 Norte 0 -- -- 80
2021-01-06 04:00:00 3.6 3 Norte 8 Nordeste 0 -- -- 79
2021-01-06 03:00:00 3.9 3 Norte 9 Norte 0 -- -- 78
2021-01-06 02:00:00 4.4 4 Norte 9 Norte 0 -- -- 77
2021-01-06 01:00:00 4.5 3 Norte 9 Nordeste 0 -- -- 80
2021-01-06 00:00:00 4.8 5 Norte 10 Norte 0 -- -- 83
2021-01-05 23:00:00 5.3 4 Norte 11 Norte 0 -- -- 83
2021-01-05 22:00:00 6.3 4 Norte 13 Nordeste 0 -- -- 80
2021-01-05 21:00:00 7.6 6 Nordeste 14 Norte 0 -- -- 76
2021-01-05 20:00:00 8.2 3 Nordeste 8 Nordeste 0 -- -- 75
2021-01-05 19:00:00 9.4 3 Nordeste 12 Nordeste 0 -- -- 72
2021-01-05 18:00:00 10.4 6 Nordeste 16 Nordeste 0 -- -- 69
2021-01-05 17:00:00 11.1 6 Nordeste 14 Nordeste 0 -- -- 69
2021-01-05 16:00:00 11.5 6 Nordeste 15 Nordeste 0 -- -- 68
2021-01-05 15:00:00 12.4 6 Nordeste 15 Norte 0 -- -- 67
2021-01-05 14:00:00 12.5 4 Nordeste 13 Este 0 -- -- 67
2021-01-05 13:00:00 12.6 5 Nordeste 16 Nordeste 0 -- -- 66
2021-01-05 12:00:00 11.6 4 Nordeste 13 Nordeste 0 -- -- 70
2021-01-05 11:00:00 8.7 6 Nordeste 15 Norte 0 -- -- 78
2021-01-05 10:00:00 6 4 Norte 12 Nordeste 0 -- -- 94
2021-01-05 09:00:00 4.2 5 Norte 11 Norte 0 -- -- 94
2021-01-05 08:00:00 4.4 4 Nordeste 10 Nordeste 0 -- -- 95
2021-01-05 07:00:00 4.6 6 Nordeste 11 Nordeste 0 -- -- 95
2021-01-05 06:00:00 4.5 4 Norte 12 Norte 0 -- -- 95
2021-01-05 05:00:00 4.8 3 Norte 9 Norte 0 -- -- 94
2021-01-05 04:00:00 5.4 2 Norte 5 Norte 0 -- -- 95
2021-01-05 03:00:00 5.2 3 Norte 5 Noroeste 0 -- -- 93
2021-01-05 02:00:00 5.7 0 Calma 4 Sur 0 -- -- 92
2021-01-05 01:00:00 6.4 0 Calma 3 Sudoeste 0 -- -- 90
2021-01-05 00:00:00 7 0 Calma 3 Sudoeste 0 -- -- 88
2021-01-04 23:00:00 8.2 0 Calma 7 Sur 0 -- -- 84
2021-01-04 22:00:00 8.3 3 Sur 5 Sudoeste 0 -- -- 83
2021-01-04 21:00:00 9.2 0 Calma 8 Sudoeste 0 -- -- 79
2021-01-04 20:00:00 9.7 3 Sudoeste 6 Sudoeste 0 -- -- 76
2021-01-04 19:00:00 9.9 2 Sudoeste 12 Sur 0 -- -- 74
2021-01-04 18:00:00 10.8 6 Sur 15 Sudoeste 0 -- -- 68
2021-01-04 17:00:00 11.7 4 Sur 13 Sudoeste 0 -- -- 65
2021-01-04 16:00:00 11.4 7 Sur 14 Sudoeste 0 -- -- 67
2021-01-04 15:00:00 12.4 8 Sur 14 Sur 0 -- -- 64
2021-01-04 14:00:00 12.3 3 Sur 9 Sudeste 0 -- -- 60
2021-01-04 13:00:00 10.5 3 Sudoeste 8 Sudoeste 0 -- -- 62
2021-01-04 12:00:00 10.4 2 Noroeste 9 Norte 0 -- -- 64
2021-01-04 11:00:00 7.1 4 Norte 8 Noroeste 0 -- -- 77
2021-01-04 10:00:00 3.3 2 Noroeste 5 Noroeste 0 -- -- 99
2021-01-04 09:00:00 -0.5 2 Noroeste 5 Noroeste 0 -- -- 97
2021-01-04 08:00:00 -0.6 4 Noroeste 6 Noroeste 0 -- -- 96
2021-01-04 07:00:00 -0.5 2 Noroeste 5 Noroeste 0 -- -- 96
2021-01-04 06:00:00 -0.3 0 Calma 4 Noroeste 0 -- -- 95
2021-01-04 05:00:00 0 0 Calma -- -- 0 -- -- 95
2021-01-04 04:00:00 0.3 0 Calma 3 Sudoeste 0 -- -- 94
2021-01-04 03:00:00 0.8 0 Calma 2 Norte 0 -- -- 93
2021-01-04 02:00:00 1.3 0 Calma 3 Sudoeste 0 -- -- 91
2021-01-04 01:00:00 1.9 0 Calma 5 Sudoeste 0 -- -- 87
2021-01-04 00:00:00 3.3 3 Sur 5 Oeste 0 -- -- 85
2021-01-03 23:00:00 3.7 3 Noroeste 9 Oeste 0 -- -- 84
2021-01-03 22:00:00 4.2 0 Calma 5 Sur 0 -- -- 81
2021-01-03 21:00:00 5 0 Calma 5 Sudeste 0 -- -- 77
2021-01-03 20:00:00 6 0 Calma 5 Sudeste 0 -- -- 74
2021-01-03 19:00:00 8.1 0 Calma 15 Sur 0 -- -- 73
2021-01-03 18:00:00 10.2 8 Sur 18 Sur 0 -- -- 65
2021-01-03 17:00:00 12 9 Sur 16 Sur 0 -- -- 56
2021-01-03 16:00:00 12.2 11 Sur 20 Sur 0 -- -- 56
2021-01-03 15:00:00 12.7 10 Sur 17 Sur 0 -- -- 54
2021-01-03 14:00:00 12 6 Sur 13 Sur 0 -- -- 55
2021-01-03 13:00:00 10.5 4 Sur 9 Sudoeste 0 -- -- 58
2021-01-03 12:00:00 9.1 2 Sudeste 5 Noroeste 0 -- -- 63
2021-01-03 11:00:00 7.6 4 Noroeste 6 Noroeste 0 -- -- 74
2021-01-03 10:00:00 3.3 3 Norte 6 Norte 0 -- -- 97
2021-01-03 09:00:00 -0.3 3 Norte 8 Norte 0 -- -- 97
2021-01-03 08:00:00 -1.5 3 Norte 4 Norte 0 -- -- 95
2021-01-03 07:00:00 -1.1 0 Calma 3 Sudoeste 0 -- -- 95
2021-01-03 06:00:00 -0.6 0 Calma 4 Noroeste 0 -- -- 94
2021-01-03 05:00:00 -0.2 2 Noroeste 4 Norte 0 -- -- 93
2021-01-03 04:00:00 0.2 0 Calma 5 Noroeste 0 -- -- 92
2021-01-03 03:00:00 0.7 2 Noroeste 5 Noroeste 0 -- -- 92
2021-01-03 02:00:00 1.4 0 Calma 5 Nordeste 0 -- -- 92
2021-01-03 01:00:00 1.6 0 Calma 4 Este 0 -- -- 89
2021-01-03 00:00:00 2.2 0 Calma 2 Oeste 0 -- -- 85
2021-01-02 23:00:00 3.3 0 Calma 3 Norte 0 -- -- 80
2021-01-02 22:00:00 4.7 0 Calma 9 Noroeste 0 -- -- 73
2021-01-02 21:00:00 5.8 4 Norte 9 Norte 0 -- -- 67
2021-01-02 20:00:00 6.4 5 Norte 8 Norte 0 -- -- 65
2021-01-02 19:00:00 8.7 0 Calma 8 Norte 0 -- -- 60
2021-01-02 18:00:00 11.9 4 Norte 13 Noroeste 0 -- -- 47
2021-01-02 17:00:00 14.3 7 Oeste 22 Oeste 0 -- -- 45
2021-01-02 16:00:00 14.9 6 Noroeste 15 Oeste 0 -- -- 45
2021-01-02 15:00:00 15 5 Noroeste 15 Oeste 0 -- -- 47
2021-01-02 14:00:00 13.9 6 Noroeste 13 Oeste 0 -- -- 46